JIGSW98 EGVN-EGVN
Flight info
| Callsign | JIGSW98 |
|---|---|
| Flight time | 1h 15m |
| Altitude | 6000 |
| Route | OPR D128 VLN LFA2 LFA7 |
| Aircraft | A400/H-SDE3GHIJ2J3J5M1RVWXYZ/LB2D1 |
Departure
| Time | 2026-04-24 18:55 |
|---|---|
| Airport | RAF Brize Norton (EGVN) |
Arrival
| Time | 2026-04-24 20:10 |
|---|---|
| Airport | RAF Brize Norton (EGVN) |
| Time | Latitude | Longitude | Altitude | Speed | Heading |
|---|---|---|---|---|---|
| 2026-04-24 18:54 | 51.75648 | -1.54213 | 1817 ft | 212 kts | 77° |
| 2026-04-24 18:55 | 51.76364 | -1.49038 | 2984 ft | 259 kts | 80° |
| 2026-04-24 18:55 | 51.76285 | -1.46083 | 3432 ft | 277 kts | 105° |
| 2026-04-24 18:55 | 51.75288 | -1.43386 | 3905 ft | 289 kts | 138° |
| 2026-04-24 18:56 | 51.73401 | -1.42326 | 4483 ft | 299 kts | 188° |
| 2026-04-24 18:56 | 51.71500 | -1.43742 | 4925 ft | 308 kts | 212° |
| 2026-04-24 18:56 | 51.69691 | -1.45577 | 5293 ft | 298 kts | 212° |
| 2026-04-24 18:56 | 51.68110 | -1.47260 | 5608 ft | 245 kts | 211° |
| 2026-04-24 18:57 | 51.66770 | -1.48651 | 5809 ft | 216 kts | 212° |
| 2026-04-24 18:57 | 51.65450 | -1.50115 | 6082 ft | 251 kts | 212° |
| 2026-04-24 18:57 | 51.63903 | -1.51695 | 6349 ft | 280 kts | 210° |
| 2026-04-24 18:57 | 51.62210 | -1.53313 | 6226 ft | 284 kts | 210° |
| 2026-04-24 18:58 | 51.60569 | -1.54871 | 6205 ft | 262 kts | 210° |
| 2026-04-24 18:58 | 51.59036 | -1.56382 | 6241 ft | 259 kts | 211° |
| 2026-04-24 18:58 | 51.57513 | -1.57934 | 6217 ft | 258 kts | 211° |
| 2026-04-24 18:58 | 51.55918 | -1.59295 | 6265 ft | 261 kts | 200° |
| 2026-04-24 18:59 | 51.54209 | -1.60207 | 6244 ft | 263 kts | 196° |
| 2026-04-24 18:59 | 51.52450 | -1.60960 | 6248 ft | 257 kts | 192° |
| 2026-04-24 18:59 | 51.50712 | -1.61555 | 6240 ft | 253 kts | 191° |
| 2026-04-24 18:59 | 51.48992 | -1.62119 | 6230 ft | 251 kts | 190° |
| 2026-04-24 19:00 | 51.47274 | -1.62632 | 6214 ft | 255 kts | 189° |
| 2026-04-24 19:00 | 51.45529 | -1.63079 | 6171 ft | 249 kts | 188° |
| 2026-04-24 19:00 | 51.43761 | -1.63550 | 6235 ft | 260 kts | 189° |
| 2026-04-24 19:00 | 51.42017 | -1.64039 | 6223 ft | 255 kts | 189° |
| 2026-04-24 19:01 | 51.40267 | -1.64505 | 6232 ft | 250 kts | 188° |
| 2026-04-24 19:01 | 51.38510 | -1.65001 | 5934 ft | 271 kts | 189° |
| 2026-04-24 19:01 | 51.36588 | -1.65506 | 5391 ft | 277 kts | 188° |
| 2026-04-24 19:01 | 51.34733 | -1.65951 | 4900 ft | 263 kts | 187° |
| 2026-04-24 19:02 | 51.33549 | -1.66266 | 4531 ft | 259 kts | 188° |
| 2026-04-24 19:02 | 51.31460 | -1.67957 | 3788 ft | 264 kts | 229° |
| 2026-04-24 19:02 | 51.30741 | -1.70658 | 3293 ft | 267 kts | 264° |
| 2026-04-24 19:02 | 51.31073 | -1.73488 | 2887 ft | 258 kts | 292° |
| 2026-04-24 19:03 | 51.31728 | -1.76093 | 2549 ft | 255 kts | 292° |
| 2026-04-24 19:03 | 51.32377 | -1.78713 | 2311 ft | 250 kts | 291° |
| 2026-04-24 19:03 | 51.32999 | -1.81306 | 2386 ft | 245 kts | 291° |
| 2026-04-24 19:03 | 51.33570 | -1.83702 | 2365 ft | 216 kts | 289° |
| 2026-04-24 19:04 | 51.33639 | -1.85909 | 2344 ft | 192 kts | 246° |
| 2026-04-24 19:04 | 51.32755 | -1.87340 | 2257 ft | 179 kts | 192° |
| 2026-04-24 19:04 | 51.31641 | -1.86983 | 2117 ft | 163 kts | 132° |
| 2026-04-24 19:04 | 51.31117 | -1.85540 | 2073 ft | 138 kts | 114° |
| 2026-04-24 19:05 | 51.30754 | -1.84109 | 2041 ft | 142 kts | 111° |
| 2026-04-24 19:05 | 51.30414 | -1.82673 | 1895 ft | 137 kts | 109° |
| 2026-04-24 19:05 | 51.30090 | -1.81203 | 1683 ft | 138 kts | 108° |
| 2026-04-24 19:05 | 51.29761 | -1.79797 | 1601 ft | 134 kts | 109° |
| 2026-04-24 19:06 | 51.29474 | -1.78469 | 1566 ft | 128 kts | 109° |
| 2026-04-24 19:06 | 51.29167 | -1.77133 | 1691 ft | 125 kts | 112° |
| 2026-04-24 19:06 | 51.28817 | -1.75857 | 1802 ft | 124 kts | 113° |
| 2026-04-24 19:06 | 51.28490 | -1.74555 | 1832 ft | 134 kts | 110° |
| 2026-04-24 19:07 | 51.28166 | -1.73198 | 1755 ft | 123 kts | 109° |
| 2026-04-24 19:07 | 51.27856 | -1.71947 | 1742 ft | 113 kts | 111° |
| 2026-04-24 19:07 | 51.27638 | -1.71133 | 1757 ft | 126 kts | 111° |
| 2026-04-24 19:07 | 51.27144 | -1.69324 | 1708 ft | 131 kts | 111° |
| 2026-04-24 19:08 | 51.26832 | -1.68111 | 1654 ft | 117 kts | 110° |
| 2026-04-24 19:08 | 51.26518 | -1.66829 | 1594 ft | 128 kts | 109° |
| 2026-04-24 19:08 | 51.26403 | -1.65443 | 1561 ft | 131 kts | 77° |
| 2026-04-24 19:08 | 51.27004 | -1.64365 | 1542 ft | 129 kts | 27° |
| 2026-04-24 19:09 | 51.27854 | -1.64103 | 1664 ft | 136 kts | 358° |
| 2026-04-24 19:09 | 51.28724 | -1.64847 | 1643 ft | 155 kts | 314° |
| 2026-04-24 19:09 | 51.29230 | -1.66267 | 1652 ft | 152 kts | 295° |
| 2026-04-24 19:09 | 51.29571 | -1.67848 | 1600 ft | 150 kts | 289° |
| 2026-04-24 19:10 | 51.29875 | -1.69402 | 1486 ft | 144 kts | 289° |
| 2026-04-24 19:10 | 51.30205 | -1.70927 | 1415 ft | 141 kts | 291° |
| 2026-04-24 19:10 | 51.30559 | -1.72409 | 1374 ft | 141 kts | 291° |
| 2026-04-24 19:10 | 51.30918 | -1.73840 | 1357 ft | 141 kts | 293° |
| 2026-04-24 19:11 | 51.31252 | -1.75335 | 1376 ft | 143 kts | 289° |
| 2026-04-24 19:11 | 51.31543 | -1.76839 | 1408 ft | 144 kts | 288° |
| 2026-04-24 19:11 | 51.31851 | -1.78356 | 1439 ft | 147 kts | 289° |
| 2026-04-24 19:11 | 51.32174 | -1.79863 | 1462 ft | 143 kts | 290° |
| 2026-04-24 19:12 | 51.32497 | -1.81361 | 1486 ft | 144 kts | 289° |
| 2026-04-24 19:12 | 51.32664 | -1.82955 | 1549 ft | 152 kts | 260° |
| 2026-04-24 19:12 | 51.32117 | -1.84302 | 1601 ft | 147 kts | 209° |
| 2026-04-24 19:12 | 51.31166 | -1.84495 | 1654 ft | 134 kts | 156° |
| 2026-04-24 19:13 | 51.30708 | -1.83939 | 1594 ft | 120 kts | 122° |
| 2026-04-24 19:13 | 51.30251 | -1.82290 | 1557 ft | 124 kts | 109° |
| 2026-04-24 19:13 | 51.29924 | -1.81008 | 1446 ft | 123 kts | 112° |
| 2026-04-24 19:13 | 51.29582 | -1.79729 | 1448 ft | 134 kts | 110° |
| 2026-04-24 19:14 | 51.29277 | -1.78448 | 1402 ft | 125 kts | 112° |
| 2026-04-24 19:14 | 51.28983 | -1.77317 | 1471 ft | 122 kts | 111° |
| 2026-04-24 19:14 | 51.28690 | -1.76018 | 1513 ft | 131 kts | 109° |
| 2026-04-24 19:14 | 51.28393 | -1.74718 | 1591 ft | 127 kts | 111° |
| 2026-04-24 19:15 | 51.28075 | -1.73420 | 1651 ft | 120 kts | 110° |
| 2026-04-24 19:15 | 51.27770 | -1.72075 | 1625 ft | 137 kts | 109° |
| 2026-04-24 19:15 | 51.27470 | -1.70678 | 1563 ft | 126 kts | 108° |
| 2026-04-24 19:15 | 51.27168 | -1.69378 | 1493 ft | 130 kts | 109° |
| 2026-04-24 19:16 | 51.26568 | -1.66789 | 1547 ft | 121 kts | 108° |
| 2026-04-24 19:16 | 51.26438 | -1.65442 | 1553 ft | 128 kts | 79° |
| 2026-04-24 19:16 | 51.27034 | -1.64512 | 1625 ft | 135 kts | 20° |
| 2026-04-24 19:17 | 51.28092 | -1.64519 | 1610 ft | 166 kts | 343° |
| 2026-04-24 19:17 | 51.29115 | -1.65847 | 1539 ft | 217 kts | 306° |
| 2026-04-24 19:17 | 51.29767 | -1.67883 | 1517 ft | 193 kts | 297° |
| 2026-04-24 19:17 | 51.30332 | -1.69800 | 2009 ft | 203 kts | 295° |
| 2026-04-24 19:18 | 51.30855 | -1.71735 | 2405 ft | 226 kts | 292° |
| 2026-04-24 19:18 | 51.31343 | -1.73694 | 2555 ft | 199 kts | 291° |
| 2026-04-24 19:18 | 51.31818 | -1.75670 | 2479 ft | 184 kts | 291° |
| 2026-04-24 19:18 | 51.32291 | -1.77607 | 2532 ft | 190 kts | 292° |
| 2026-04-24 19:19 | 51.32791 | -1.79593 | 2543 ft | 194 kts | 293° |
| 2026-04-24 19:19 | 51.33324 | -1.81639 | 2569 ft | 208 kts | 293° |
| 2026-04-24 19:19 | 51.33906 | -1.83902 | 2795 ft | 231 kts | 292° |
| 2026-04-24 19:19 | 51.34518 | -1.86326 | 2831 ft | 232 kts | 292° |
| 2026-04-24 19:20 | 51.35100 | -1.88648 | 2693 ft | 220 kts | 292° |
| 2026-04-24 19:20 | 51.35667 | -1.90912 | 2682 ft | 218 kts | 292° |
| 2026-04-24 19:20 | 51.36230 | -1.93152 | 2688 ft | 217 kts | 292° |
| 2026-04-24 19:20 | 51.36607 | -1.95434 | 2681 ft | 216 kts | 268° |
| 2026-04-24 19:21 | 51.36254 | -1.97543 | 2689 ft | 213 kts | 240° |
| 2026-04-24 19:21 | 51.35440 | -1.99524 | 2690 ft | 213 kts | 231° |
| 2026-04-24 19:21 | 51.34546 | -2.01417 | 2686 ft | 214 kts | 230° |
| 2026-04-24 19:21 | 51.33641 | -2.03302 | 2690 ft | 214 kts | 230° |
| 2026-04-24 19:22 | 51.33043 | -2.04545 | 2686 ft | 214 kts | 230° |
| 2026-04-24 19:22 | 51.31830 | -2.07068 | 2685 ft | 214 kts | 230° |
| 2026-04-24 19:22 | 51.30933 | -2.08936 | 2686 ft | 213 kts | 230° |
| 2026-04-24 19:22 | 51.30030 | -2.10813 | 2684 ft | 212 kts | 230° |
| 2026-04-24 19:23 | 51.29125 | -2.12695 | 2685 ft | 212 kts | 230° |
| 2026-04-24 19:23 | 51.28218 | -2.14579 | 2682 ft | 213 kts | 230° |
| 2026-04-24 19:23 | 51.27309 | -2.16463 | 2682 ft | 213 kts | 230° |
| 2026-04-24 19:23 | 51.26415 | -2.18319 | 2685 ft | 213 kts | 230° |
| 2026-04-24 19:24 | 51.25510 | -2.20197 | 2683 ft | 214 kts | 230° |
| 2026-04-24 19:24 | 51.24604 | -2.22078 | 2681 ft | 214 kts | 230° |
| 2026-04-24 19:24 | 51.23701 | -2.23951 | 2686 ft | 214 kts | 230° |
| 2026-04-24 19:24 | 51.22762 | -2.25894 | 2703 ft | 236 kts | 230° |
| 2026-04-24 19:25 | 51.21694 | -2.28083 | 2691 ft | 259 kts | 230° |
| 2026-04-24 19:25 | 51.20576 | -2.30374 | 2679 ft | 265 kts | 230° |
| 2026-04-24 19:25 | 51.19450 | -2.32673 | 2672 ft | 266 kts | 230° |
| 2026-04-24 19:25 | 51.18301 | -2.35005 | 2674 ft | 267 kts | 230° |
| 2026-04-24 19:26 | 51.17196 | -2.37388 | 2671 ft | 268 kts | 236° |
| 2026-04-24 19:26 | 51.16258 | -2.39966 | 2670 ft | 268 kts | 239° |
| 2026-04-24 19:26 | 51.15370 | -2.42551 | 2664 ft | 268 kts | 240° |
| 2026-04-24 19:26 | 51.14475 | -2.45168 | 2665 ft | 268 kts | 240° |
| 2026-04-24 19:27 | 51.13583 | -2.47777 | 2668 ft | 268 kts | 240° |
| 2026-04-24 19:27 | 51.12690 | -2.50391 | 2664 ft | 268 kts | 240° |
| 2026-04-24 19:27 | 51.11798 | -2.53012 | 2664 ft | 268 kts | 240° |
| 2026-04-24 19:27 | 51.10903 | -2.55635 | 2662 ft | 268 kts | 240° |
| 2026-04-24 19:28 | 51.10021 | -2.58214 | 2659 ft | 269 kts | 240° |
| 2026-04-24 19:28 | 51.09124 | -2.60833 | 2663 ft | 269 kts | 240° |
| 2026-04-24 19:28 | 51.08230 | -2.63453 | 2662 ft | 269 kts | 240° |
| 2026-04-24 19:28 | 51.07336 | -2.66072 | 2659 ft | 262 kts | 240° |
| 2026-04-24 19:29 | 51.05672 | -2.70824 | 2653 ft | 239 kts | 232° |
| 2026-04-24 19:29 | 51.04412 | -2.72429 | 2660 ft | 231 kts | 199° |
| 2026-04-24 19:29 | 51.02851 | -2.72975 | 2558 ft | 228 kts | 183° |
| 2026-04-24 19:30 | 51.01297 | -2.72965 | 2262 ft | 225 kts | 165° |
| 2026-04-24 19:30 | 50.99804 | -2.72230 | 2019 ft | 224 kts | 160° |
| 2026-04-24 19:30 | 50.98324 | -2.71499 | 1771 ft | 222 kts | 160° |
| 2026-04-24 19:30 | 50.96854 | -2.70809 | 1577 ft | 221 kts | 162° |
| 2026-04-24 19:31 | 50.95333 | -2.70516 | 1459 ft | 221 kts | 189° |
| 2026-04-24 19:31 | 50.94062 | -2.71815 | 1472 ft | 229 kts | 232° |
| 2026-04-24 19:31 | 50.93261 | -2.74006 | 1280 ft | 228 kts | 238° |
| 2026-04-24 19:31 | 50.92574 | -2.76264 | 1097 ft | 228 kts | 259° |
| 2026-04-24 19:32 | 50.92905 | -2.78653 | 1152 ft | 227 kts | 307° |
| 2026-04-24 19:32 | 50.94156 | -2.80152 | 1091 ft | 227 kts | 333° |
| 2026-04-24 19:32 | 50.95552 | -2.81346 | 879 ft | 226 kts | 333° |
| 2026-04-24 19:32 | 50.97033 | -2.82133 | 736 ft | 225 kts | 357° |
| 2026-04-24 19:33 | 50.98506 | -2.81552 | 773 ft | 224 kts | 30° |
| 2026-04-24 19:33 | 50.99787 | -2.80155 | 716 ft | 221 kts | 52° |
| 2026-04-24 19:33 | 51.00283 | -2.77908 | 730 ft | 216 kts | 86° |
| 2026-04-24 19:33 | 51.00353 | -2.75506 | 646 ft | 219 kts | 89° |
| 2026-04-24 19:34 | 51.00412 | -2.73109 | 660 ft | 219 kts | 88° |
| 2026-04-24 19:34 | 51.00510 | -2.70708 | 642 ft | 218 kts | 86° |
| 2026-04-24 19:34 | 51.00652 | -2.68293 | 668 ft | 219 kts | 86° |
| 2026-04-24 19:34 | 51.00812 | -2.65887 | 641 ft | 219 kts | 86° |
| 2026-04-24 19:35 | 51.00319 | -2.63758 | 850 ft | 211 kts | 138° |
| 2026-04-24 19:35 | 50.99454 | -2.63049 | 980 ft | 215 kts | 169° |
| 2026-04-24 19:35 | 50.97664 | -2.64131 | 994 ft | 221 kts | 233° |
| 2026-04-24 19:35 | 50.97199 | -2.66465 | 978 ft | 227 kts | 259° |
| 2026-04-24 19:36 | 50.97007 | -2.68087 | 914 ft | 226 kts | 257° |
| 2026-04-24 19:36 | 50.96734 | -2.70555 | 1072 ft | 229 kts | 259° |
| 2026-04-24 19:36 | 50.96732 | -2.73055 | 1169 ft | 228 kts | 290° |
| 2026-04-24 19:36 | 50.97805 | -2.74761 | 1146 ft | 224 kts | 344° |
| 2026-04-24 19:37 | 50.99300 | -2.74646 | 987 ft | 207 kts | 28° |
| 2026-04-24 19:37 | 51.00160 | -2.73083 | 733 ft | 181 kts | 73° |
| 2026-04-24 19:37 | 51.00354 | -2.71155 | 562 ft | 170 kts | 85° |
| 2026-04-24 19:37 | 51.00473 | -2.69421 | 402 ft | 157 kts | 86° |
| 2026-04-24 19:38 | 51.00588 | -2.67715 | 240 ft | 152 kts | 85° |
| 2026-04-24 19:38 | 51.00716 | -2.66040 | 91 ft | 144 kts | 85° |
| 2026-04-24 19:38 | 51.00817 | -2.64655 | 88 ft | 100 kts | 83° |
| 2026-04-24 19:38 | 51.00912 | -2.63272 | 269 ft | 150 kts | 83° |
| 2026-04-24 19:39 | 51.01044 | -2.61537 | 714 ft | 168 kts | 84° |
| 2026-04-24 19:39 | 51.01002 | -2.59672 | 1380 ft | 177 kts | 110° |
| 2026-04-24 19:39 | 51.00165 | -2.58060 | 1893 ft | 211 kts | 144° |
| 2026-04-24 19:39 | 50.98686 | -2.57299 | 2048 ft | 233 kts | 171° |
| 2026-04-24 19:40 | 50.97078 | -2.57282 | 2039 ft | 222 kts | 179° |
| 2026-04-24 19:40 | 50.95579 | -2.57415 | 2045 ft | 210 kts | 180° |
| 2026-04-24 19:40 | 50.94147 | -2.57564 | 2047 ft | 207 kts | 180° |
| 2026-04-24 19:40 | 50.92716 | -2.57716 | 2060 ft | 206 kts | 180° |
| 2026-04-24 19:41 | 50.91283 | -2.57941 | 2051 ft | 208 kts | 191° |
| 2026-04-24 19:41 | 50.90053 | -2.59140 | 2065 ft | 215 kts | 227° |
| 2026-04-24 19:41 | 50.89328 | -2.61215 | 2060 ft | 219 kts | 246° |
| 2026-04-24 19:41 | 50.88818 | -2.63481 | 2059 ft | 220 kts | 250° |
| 2026-04-24 19:42 | 50.88337 | -2.65779 | 2062 ft | 220 kts | 250° |
| 2026-04-24 19:42 | 50.87864 | -2.68053 | 2049 ft | 220 kts | 250° |
| 2026-04-24 19:42 | 50.87386 | -2.70348 | 2052 ft | 219 kts | 250° |
| 2026-04-24 19:42 | 50.86934 | -2.72660 | 2052 ft | 221 kts | 258° |
| 2026-04-24 19:43 | 50.87085 | -2.75028 | 2053 ft | 219 kts | 295° |
| 2026-04-24 19:43 | 50.88015 | -2.76895 | 2060 ft | 216 kts | 323° |
| 2026-04-24 19:43 | 50.89229 | -2.78297 | 2051 ft | 216 kts | 329° |
| 2026-04-24 19:43 | 50.90467 | -2.79587 | 1985 ft | 215 kts | 330° |
| 2026-04-24 19:44 | 50.91830 | -2.80955 | 1653 ft | 244 kts | 330° |
| 2026-04-24 19:44 | 50.93304 | -2.82384 | 1203 ft | 250 kts | 330° |
| 2026-04-24 19:44 | 50.94804 | -2.83796 | 743 ft | 249 kts | 330° |
| 2026-04-24 19:44 | 50.96372 | -2.84851 | 470 ft | 245 kts | 352° |
| 2026-04-24 19:45 | 50.98059 | -2.84918 | 414 ft | 246 kts | 0° |
| 2026-04-24 19:45 | 50.99770 | -2.84956 | 353 ft | 245 kts | 359° |
| 2026-04-24 19:45 | 51.01487 | -2.84973 | 374 ft | 245 kts | 1° |
| 2026-04-24 19:45 | 51.03198 | -2.84954 | 418 ft | 252 kts | 1° |
| 2026-04-24 19:46 | 51.05044 | -2.84796 | 454 ft | 276 kts | 10° |
| 2026-04-24 19:46 | 51.06815 | -2.83651 | 567 ft | 283 kts | 34° |
| 2026-04-24 19:46 | 51.08394 | -2.81697 | 514 ft | 286 kts | 39° |
| 2026-04-24 19:46 | 51.09914 | -2.79738 | 305 ft | 281 kts | 41° |
| 2026-04-24 19:47 | 51.11075 | -2.77309 | 398 ft | 278 kts | 68° |
| 2026-04-24 19:47 | 51.11429 | -2.74286 | 487 ft | 279 kts | 88° |
| 2026-04-24 19:47 | 51.11526 | -2.71219 | 449 ft | 278 kts | 88° |
| 2026-04-24 19:47 | 51.11609 | -2.68131 | 447 ft | 279 kts | 88° |
| 2026-04-24 19:48 | 51.11661 | -2.65053 | 409 ft | 278 kts | 90° |
| 2026-04-24 19:48 | 51.11669 | -2.61968 | 460 ft | 278 kts | 91° |
| 2026-04-24 19:48 | 51.11607 | -2.56305 | 414 ft | 239 kts | 92° |
| 2026-04-24 19:49 | 51.11501 | -2.51061 | 519 ft | 239 kts | 93° |
| 2026-04-24 19:49 | 51.11691 | -2.45828 | 612 ft | 239 kts | 67° |
| 2026-04-24 19:50 | 51.15466 | -2.40743 | 749 ft | 242 kts | 33° |
| 2026-04-24 19:50 | 51.16885 | -2.39329 | 784 ft | 242 kts | 34° |
| 2026-04-24 19:51 | 51.19353 | -2.35549 | 1106 ft | 263 kts | 40° |
| 2026-04-24 19:51 | 51.20967 | -2.34096 | 1076 ft | 264 kts | 19° |
| 2026-04-24 19:52 | 51.24311 | -2.32319 | 651 ft | 257 kts | 34° |
| 2026-04-24 19:52 | 51.25875 | -2.30851 | 651 ft | 261 kts | 29° |
| 2026-04-24 19:52 | 51.27435 | -2.29448 | 590 ft | 258 kts | 32° |
| 2026-04-24 19:52 | 51.28998 | -2.27996 | 537 ft | 259 kts | 30° |
| 2026-04-24 19:53 | 51.30575 | -2.26576 | 547 ft | 259 kts | 28° |
| 2026-04-24 19:53 | 51.32032 | -2.24932 | 618 ft | 257 kts | 45° |
| 2026-04-24 19:53 | 51.34419 | -2.20654 | 652 ft | 258 kts | 50° |
| 2026-04-24 19:54 | 51.35597 | -2.18485 | 566 ft | 257 kts | 50° |
| 2026-04-24 19:54 | 51.36805 | -2.16378 | 493 ft | 257 kts | 48° |
| 2026-04-24 19:54 | 51.37992 | -2.14279 | 454 ft | 257 kts | 50° |
| 2026-04-24 19:54 | 51.39168 | -2.12121 | 513 ft | 257 kts | 49° |
| 2026-04-24 19:55 | 51.40002 | -2.10731 | 645 ft | 257 kts | 44° |
| 2026-04-24 19:55 | 51.41693 | -2.08052 | 777 ft | 258 kts | 46° |
| 2026-04-24 19:55 | 51.42963 | -2.05995 | 781 ft | 259 kts | 47° |
| 2026-04-24 19:55 | 51.44206 | -2.03908 | 694 ft | 258 kts | 48° |
| 2026-04-24 19:56 | 51.45424 | -2.01800 | 575 ft | 257 kts | 48° |
| 2026-04-24 19:56 | 51.46633 | -1.99714 | 581 ft | 258 kts | 49° |
| 2026-04-24 19:56 | 51.47823 | -1.97567 | 588 ft | 258 kts | 49° |
| 2026-04-24 19:56 | 51.49023 | -1.95420 | 593 ft | 258 kts | 48° |
| 2026-04-24 19:57 | 51.50220 | -1.93277 | 598 ft | 257 kts | 49° |
| 2026-04-24 19:57 | 51.51458 | -1.91169 | 634 ft | 258 kts | 47° |
| 2026-04-24 19:57 | 51.52704 | -1.89102 | 597 ft | 257 kts | 47° |
| 2026-04-24 19:57 | 51.54014 | -1.87105 | 638 ft | 259 kts | 37° |
| 2026-04-24 19:58 | 51.55633 | -1.86023 | 833 ft | 261 kts | 11° |
| 2026-04-24 19:58 | 51.57446 | -1.85806 | 725 ft | 261 kts | 1° |
| 2026-04-24 19:58 | 51.59279 | -1.85784 | 641 ft | 262 kts | 3° |
| 2026-04-24 19:58 | 51.61107 | -1.85738 | 627 ft | 262 kts | 1° |
| 2026-04-24 19:59 | 51.62897 | -1.85380 | 585 ft | 258 kts | 15° |
| 2026-04-24 19:59 | 51.64523 | -1.84253 | 768 ft | 251 kts | 33° |
| 2026-04-24 19:59 | 51.65948 | -1.82586 | 750 ft | 258 kts | 38° |
| 2026-04-24 19:59 | 51.67354 | -1.80785 | 667 ft | 257 kts | 41° |
| 2026-04-24 20:00 | 51.68664 | -1.78828 | 728 ft | 259 kts | 45° |
| 2026-04-24 20:00 | 51.69907 | -1.76727 | 688 ft | 258 kts | 49° |
| 2026-04-24 20:00 | 51.71003 | -1.74436 | 770 ft | 258 kts | 57° |
| 2026-04-24 20:00 | 51.71939 | -1.71981 | 810 ft | 257 kts | 57° |
| 2026-04-24 20:01 | 51.72697 | -1.69417 | 807 ft | 253 kts | 67° |
| 2026-04-24 20:01 | 51.73398 | -1.66805 | 791 ft | 249 kts | 68° |
| 2026-04-24 20:01 | 51.73985 | -1.64332 | 735 ft | 226 kts | 71° |
| 2026-04-24 20:01 | 51.74460 | -1.61990 | 762 ft | 218 kts | 74° |
| 2026-04-24 20:02 | 51.74743 | -1.60408 | 733 ft | 217 kts | 74° |
| 2026-04-24 20:02 | 51.75279 | -1.57300 | 634 ft | 217 kts | 75° |
| 2026-04-24 20:02 | 51.75546 | -1.54982 | 664 ft | 203 kts | 94° |
| 2026-04-24 20:02 | 51.74947 | -1.53137 | 740 ft | 183 kts | 149° |
| 2026-04-24 20:03 | 51.73742 | -1.53003 | 839 ft | 181 kts | 205° |
| 2026-04-24 20:03 | 51.72953 | -1.54525 | 894 ft | 184 kts | 246° |
| 2026-04-24 20:03 | 51.72454 | -1.56431 | 853 ft | 180 kts | 247° |
| 2026-04-24 20:03 | 51.72000 | -1.58302 | 844 ft | 179 kts | 248° |
| 2026-04-24 20:04 | 51.71570 | -1.60177 | 838 ft | 178 kts | 249° |
| 2026-04-24 20:04 | 51.71151 | -1.62004 | 766 ft | 172 kts | 250° |
| 2026-04-24 20:04 | 51.70997 | -1.63862 | 854 ft | 167 kts | 280° |
| 2026-04-24 20:04 | 51.71497 | -1.65477 | 924 ft | 160 kts | 322° |
| 2026-04-24 20:05 | 51.72502 | -1.66229 | 995 ft | 160 kts | 352° |
| 2026-04-24 20:05 | 51.73596 | -1.66242 | 880 ft | 142 kts | 45° |
| 2026-04-24 20:05 | 51.74016 | -1.65031 | 884 ft | 143 kts | 92° |
| 2026-04-24 20:05 | 51.74053 | -1.63251 | 746 ft | 183 kts | 64° |
| 2026-04-24 20:06 | 51.74542 | -1.61146 | 661 ft | 217 kts | 72° |
| 2026-04-24 20:06 | 51.75014 | -1.58666 | 571 ft | 239 kts | 72° |
| 2026-04-24 20:06 | 51.74785 | -1.56175 | 956 ft | 235 kts | 117° |
| 2026-04-24 20:06 | 51.73458 | -1.54677 | 1060 ft | 229 kts | 172° |
| 2026-04-24 20:07 | 51.72517 | -1.55067 | 1148 ft | 203 kts | 216° |
| 2026-04-24 20:07 | 51.71569 | -1.57869 | 1158 ft | 232 kts | 247° |
| 2026-04-24 20:07 | 51.70959 | -1.60328 | 1082 ft | 239 kts | 248° |
| 2026-04-24 20:07 | 51.70360 | -1.62780 | 1208 ft | 235 kts | 248° |
| 2026-04-24 20:08 | 51.70073 | -1.65218 | 1306 ft | 212 kts | 275° |
| 2026-04-24 20:08 | 51.70689 | -1.67194 | 1371 ft | 194 kts | 323° |
| 2026-04-24 20:08 | 51.71867 | -1.68041 | 1347 ft | 182 kts | 354° |
| 2026-04-24 20:08 | 51.73018 | -1.67520 | 1222 ft | 175 kts | 50° |
| 2026-04-24 20:09 | 51.73635 | -1.65882 | 999 ft | 178 kts | 72° |
| 2026-04-24 20:09 | 51.73975 | -1.63989 | 786 ft | 167 kts | 75° |
| 2026-04-24 20:09 | 51.74257 | -1.62402 | 531 ft | 126 kts | 75° |
| 2026-04-24 20:09 | 51.74500 | -1.61039 | 375 ft | 124 kts | 74° |
| 2026-04-24 20:10 | 51.74740 | -1.59719 | 292 ft | 127 kts | 75° |
| 2026-04-24 20:10 | 51.74943 | -1.58600 | 276 ft | 79 kts | 73° |
| 2026-04-24 20:10 | 51.75082 | -1.58113 | 274 ft | 30 kts | 38° |
| 2026-04-24 20:10 | 51.75227 | -1.57983 | 274 ft | 21 kts | 26° |
| 2026-04-24 20:11 | 51.75319 | -1.57903 | 275 ft | 15 kts | 28° |
| 2026-04-24 20:11 | 51.75425 | -1.57813 | 273 ft | 19 kts | 27° |
| 2026-04-24 20:11 | 51.75553 | -1.57705 | 273 ft | 23 kts | 24° |
| 2026-04-24 20:11 | 51.75710 | -1.57615 | 273 ft | 25 kts | 18° |
| 2026-04-24 20:12 | 51.75876 | -1.57528 | 273 ft | 23 kts | 20° |
| 2026-04-24 20:12 | 51.75927 | -1.57324 | 273 ft | 22 kts | 99° |
| 2026-04-24 20:12 | 51.75881 | -1.57112 | 273 ft | 12 kts | 132° |
| 2026-04-24 20:12 | 51.75795 | -1.57110 | 273 ft | 16 kts | 200° |
| 2026-04-24 20:13 | 51.75675 | -1.57185 | 273 ft | 18 kts | 199° |
| 2026-04-24 20:13 | 51.75596 | -1.57275 | 273 ft | 14 kts | 267° |
| 2026-04-24 20:13 | 51.75605 | -1.57332 | 276 ft | 0 kts | 288° |